sensor_id;sensor_type;location;lat;lon;timestamp;temperature;humidity
14475;DHT22;7323;50.848;4.334;2023-04-07T00:01:29;10.50;33.40
14475;DHT22;7323;50.848;4.334;2023-04-07T00:04:15;10.60;38.40
14475;DHT22;7323;50.848;4.334;2023-04-07T00:06:43;10.60;36.40
14475;DHT22;7323;50.848;4.334;2023-04-07T00:09:12;10.40;38.40
14475;DHT22;7323;50.848;4.334;2023-04-07T00:11:39;10.50;43.80
14475;DHT22;7323;50.848;4.334;2023-04-07T00:14:05;10.90;46.20
14475;DHT22;7323;50.848;4.334;2023-04-07T00:16:39;10.80;37.20
14475;DHT22;7323;50.848;4.334;2023-04-07T00:19:13;10.80;32.70
14475;DHT22;7323;50.848;4.334;2023-04-07T00:21:48;10.70;30.80
14475;DHT22;7323;50.848;4.334;2023-04-07T00:27:56;10.60;18.30
14475;DHT22;7323;50.848;4.334;2023-04-07T00:30:47;10.70;17.50
14475;DHT22;7323;50.848;4.334;2023-04-07T00:33:28;10.80;17.40
14475;DHT22;7323;50.848;4.334;2023-04-07T00:36:13;10.70;17.50
14475;DHT22;7323;50.848;4.334;2023-04-07T00:41:16;10.70;13.00
14475;DHT22;7323;50.848;4.334;2023-04-07T00:43:42;10.80;7.80
14475;DHT22;7323;50.848;4.334;2023-04-07T00:46:11;10.60;7.70
14475;DHT22;7323;50.848;4.334;2023-04-07T00:48:58;10.60;9.60
14475;DHT22;7323;50.848;4.334;2023-04-07T00:51:46;10.60;8.00
14475;DHT22;7323;50.848;4.334;2023-04-07T00:54:12;10.70;6.60
14475;DHT22;7323;50.848;4.334;2023-04-07T00:56:39;10.50;6.80
14475;DHT22;7323;50.848;4.334;2023-04-07T00:59:11;10.50;6.50
14475;DHT22;7323;50.848;4.334;2023-04-07T01:04:57;10.50;3.50
14475;DHT22;7323;50.848;4.334;2023-04-07T01:08:00;10.50;1.00
14475;DHT22;7323;50.848;4.334;2023-04-07T01:13:43;10.50;1.00
14475;DHT22;7323;50.848;4.334;2023-04-07T01:16:49;10.60;1.00
14475;DHT22;7323;50.848;4.334;2023-04-07T01:19:37;10.50;1.00
14475;DHT22;7323;50.848;4.334;2023-04-07T01:22:12;10.50;1.00
14475;DHT22;7323;50.848;4.334;2023-04-07T01:24:53;10.30;1.00
14475;DHT22;7323;50.848;4.334;2023-04-07T01:27:53;10.30;1.00
14475;DHT22;7323;50.848;4.334;2023-04-07T01:30:32;10.30;1.00
14475;DHT22;7323;50.848;4.334;2023-04-07T01:33:00;10.40;1.00
14475;DHT22;7323;50.848;4.334;2023-04-07T01:35:31;10.30;1.00
14475;DHT22;7323;50.848;4.334;2023-04-07T01:38:02;10.40;1.00
14475;DHT22;7323;50.848;4.334;2023-04-07T01:40:53;10.50;1.00
14475;DHT22;7323;50.848;4.334;2023-04-07T01:43:23;10.50;1.00
14475;DHT22;7323;50.848;4.334;2023-04-07T01:46:12;10.50;1.00
14475;DHT22;7323;50.848;4.334;2023-04-07T01:48:42;10.50;1.00
14475;DHT22;7323;50.848;4.334;2023-04-07T01:52:03;10.40;1.00
14475;DHT22;7323;50.848;4.334;2023-04-07T01:54:32;10.50;1.00
14475;DHT22;7323;50.848;4.334;2023-04-07T01:57:26;10.50;1.00
14475;DHT22;7323;50.848;4.334;2023-04-07T02:00:19;10.60;1.00
14475;DHT22;7323;50.848;4.334;2023-04-07T02:02:58;10.60;1.00
14475;DHT22;7323;50.848;4.334;2023-04-07T02:05:25;10.60;1.00
14475;DHT22;7323;50.848;4.334;2023-04-07T02:08:01;10.60;1.00
14475;DHT22;7323;50.848;4.334;2023-04-07T02:10:30;10.60;1.00
14475;DHT22;7323;50.848;4.334;2023-04-07T02:12:58;10.60;1.00
14475;DHT22;7323;50.848;4.334;2023-04-07T02:15:25;10.60;1.00
14475;DHT22;7323;50.848;4.334;2023-04-07T02:17:55;10.60;1.00
14475;DHT22;7323;50.848;4.334;2023-04-07T02:20:29;10.50;1.00
14475;DHT22;7323;50.848;4.334;2023-04-07T02:23:15;10.50;1.00
14475;DHT22;7323;50.848;4.334;2023-04-07T02:25:48;10.50;1.00
14475;DHT22;7323;50.848;4.334;2023-04-07T02:28:17;10.40;1.00
14475;DHT22;7323;50.848;4.334;2023-04-07T02:30:49;10.40;1.00
14475;DHT22;7323;50.848;4.334;2023-04-07T02:33:39;10.30;1.00
14475;DHT22;7323;50.848;4.334;2023-04-07T02:36:51;10.40;1.00
14475;DHT22;7323;50.848;4.334;2023-04-07T02:39:17;10.30;1.00
14475;DHT22;7323;50.848;4.334;2023-04-07T02:41:43;10.30;1.00
14475;DHT22;7323;50.848;4.334;2023-04-07T02:44:11;10.50;1.00
14475;DHT22;7323;50.848;4.334;2023-04-07T02:46:40;10.30;1.00
14475;DHT22;7323;50.848;4.334;2023-04-07T02:49:11;10.20;1.00
14475;DHT22;7323;50.848;4.334;2023-04-07T02:51:58;10.20;1.00
14475;DHT22;7323;50.848;4.334;2023-04-07T02:54:28;10.10;1.00
14475;DHT22;7323;50.848;4.334;2023-04-07T02:56:56;10.20;1.00
14475;DHT22;7323;50.848;4.334;2023-04-07T02:59:28;10.10;1.00
14475;DHT22;7323;50.848;4.334;2023-04-07T03:01:56;10.10;1.00
14475;DHT22;7323;50.848;4.334;2023-04-07T03:04:24;10.20;1.00
14475;DHT22;7323;50.848;4.334;2023-04-07T03:07:19;10.10;1.00
14475;DHT22;7323;50.848;4.334;2023-04-07T03:09:56;10.10;1.00
14475;DHT22;7323;50.848;4.334;2023-04-07T03:12:23;10.10;1.00
14475;DHT22;7323;50.848;4.334;2023-04-07T03:14:51;10.20;1.00
14475;DHT22;7323;50.848;4.334;2023-04-07T03:17:25;10.10;1.00
14475;DHT22;7323;50.848;4.334;2023-04-07T03:20:19;10.20;1.00
14475;DHT22;7323;50.848;4.334;2023-04-07T03:22:45;10.20;1.00
14475;DHT22;7323;50.848;4.334;2023-04-07T03:25:30;10.20;1.00
14475;DHT22;7323;50.848;4.334;2023-04-07T03:27:58;10.20;1.00
14475;DHT22;7323;50.848;4.334;2023-04-07T03:30:26;10.20;1.00
14475;DHT22;7323;50.848;4.334;2023-04-07T03:32:58;10.10;1.00
14475;DHT22;7323;50.848;4.334;2023-04-07T03:35:45;10.10;1.00
14475;DHT22;7323;50.848;4.334;2023-04-07T03:38:12;10.10;1.00
14475;DHT22;7323;50.848;4.334;2023-04-07T03:40:39;10.00;1.00
14475;DHT22;7323;50.848;4.334;2023-04-07T03:43:06;10.00;1.00
14475;DHT22;7323;50.848;4.334;2023-04-07T03:46:04;10.00;1.00
14475;DHT22;7323;50.848;4.334;2023-04-07T03:48:29;10.10;1.00
14475;DHT22;7323;50.848;4.334;2023-04-07T03:50:57;10.10;1.00
14475;DHT22;7323;50.848;4.334;2023-04-07T03:53:24;10.20;1.00
14475;DHT22;7323;50.848;4.334;2023-04-07T03:56:12;10.20;1.00
14475;DHT22;7323;50.848;4.334;2023-04-07T03:58:41;10.20;1.00
14475;DHT22;7323;50.848;4.334;2023-04-07T04:01:07;10.20;1.00
14475;DHT22;7323;50.848;4.334;2023-04-07T04:03:35;10.30;1.00
14475;DHT22;7323;50.848;4.334;2023-04-07T04:06:10;10.30;1.00
14475;DHT22;7323;50.848;4.334;2023-04-07T04:08:36;10.40;1.00
14475;DHT22;7323;50.848;4.334;2023-04-07T04:11:02;10.40;1.00
14475;DHT22;7323;50.848;4.334;2023-04-07T04:13:28;10.20;1.00
14475;DHT22;7323;50.848;4.334;2023-04-07T04:16:09;10.20;1.00
14475;DHT22;7323;50.848;4.334;2023-04-07T04:18:40;9.90;1.00
14475;DHT22;7323;50.848;4.334;2023-04-07T04:21:07;9.80;1.00
14475;DHT22;7323;50.848;4.334;2023-04-07T04:23:33;9.80;1.00
14475;DHT22;7323;50.848;4.334;2023-04-07T04:26:01;9.60;2.00
14475;DHT22;7323;50.848;4.334;2023-04-07T04:28:32;9.50;9.60
14475;DHT22;7323;50.848;4.334;2023-04-07T04:30:58;9.60;11.50
14475;DHT22;7323;50.848;4.334;2023-04-07T04:33:40;9.60;15.60
14475;DHT22;7323;50.848;4.334;2023-04-07T04:36:07;9.60;16.10
14475;DHT22;7323;50.848;4.334;2023-04-07T04:38:33;9.60;16.00
14475;DHT22;7323;50.848;4.334;2023-04-07T04:40:59;9.60;17.50
14475;DHT22;7323;50.848;4.334;2023-04-07T04:43:28;9.60;16.70
14475;DHT22;7323;50.848;4.334;2023-04-07T04:45:55;9.70;15.70
14475;DHT22;7323;50.848;4.334;2023-04-07T04:48:21;9.60;13.80
14475;DHT22;7323;50.848;4.334;2023-04-07T04:50:47;9.60;15.30
14475;DHT22;7323;50.848;4.334;2023-04-07T04:53:14;9.60;19.50
14475;DHT22;7323;50.848;4.334;2023-04-07T04:55:43;9.70;16.00
14475;DHT22;7323;50.848;4.334;2023-04-07T04:58:28;9.60;13.70
14475;DHT22;7323;50.848;4.334;2023-04-07T05:01:04;9.60;8.90
14475;DHT22;7323;50.848;4.334;2023-04-07T05:03:42;9.70;9.40
14475;DHT22;7323;50.848;4.334;2023-04-07T05:06:16;9.80;8.30
14475;DHT22;7323;50.848;4.334;2023-04-07T05:08:46;9.60;6.80
14475;DHT22;7323;50.848;4.334;2023-04-07T05:11:13;9.50;11.40
14475;DHT22;7323;50.848;4.334;2023-04-07T05:13:40;9.50;16.60
14475;DHT22;7323;50.848;4.334;2023-04-07T05:16:06;9.50;16.00
14475;DHT22;7323;50.848;4.334;2023-04-07T05:18:35;9.40;15.30
14475;DHT22;7323;50.848;4.334;2023-04-07T05:21:02;9.50;16.00
14475;DHT22;7323;50.848;4.334;2023-04-07T05:23:58;9.50;13.70
14475;DHT22;7323;50.848;4.334;2023-04-07T05:26:34;9.50;12.80
14475;DHT22;7323;50.848;4.334;2023-04-07T05:29:22;9.50;10.10
14475;DHT22;7323;50.848;4.334;2023-04-07T05:31:50;9.40;9.00
14475;DHT22;7323;50.848;4.334;2023-04-07T05:34:19;9.40;15.90
14475;DHT22;7323;50.848;4.334;2023-04-07T05:37:09;9.60;19.90
14475;DHT22;7323;50.848;4.334;2023-04-07T05:39:51;9.50;13.40
14475;DHT22;7323;50.848;4.334;2023-04-07T05:42:44;9.30;15.30
14475;DHT22;7323;50.848;4.334;2023-04-07T05:45:29;9.30;22.60
14475;DHT22;7323;50.848;4.334;2023-04-07T05:48:00;9.40;24.80
14475;DHT22;7323;50.848;4.334;2023-04-07T05:50:44;9.30;22.30
14475;DHT22;7323;50.848;4.334;2023-04-07T05:53:13;9.50;23.30
14475;DHT22;7323;50.848;4.334;2023-04-07T05:56:08;9.40;19.80
14475;DHT22;7323;50.848;4.334;2023-04-07T05:59:17;9.60;10.50
14475;DHT22;7323;50.848;4.334;2023-04-07T06:01:44;9.50;10.30
14475;DHT22;7323;50.848;4.334;2023-04-07T06:04:10;9.60;10.50
14475;DHT22;7323;50.848;4.334;2023-04-07T06:06:40;9.60;7.50
14475;DHT22;7323;50.848;4.334;2023-04-07T06:09:18;9.70;6.40
14475;DHT22;7323;50.848;4.334;2023-04-07T06:11:43;9.60;5.40
14475;DHT22;7323;50.848;4.334;2023-04-07T06:14:18;9.70;7.20
14475;DHT22;7323;50.848;4.334;2023-04-07T06:16:48;9.80;2.70
14475;DHT22;7323;50.848;4.334;2023-04-07T06:19:14;9.70;1.00
14475;DHT22;7323;50.848;4.334;2023-04-07T06:21:49;9.60;3.60
14475;DHT22;7323;50.848;4.334;2023-04-07T06:24:16;9.80;5.20
14475;DHT22;7323;50.848;4.334;2023-04-07T06:26:43;10.10;1.00
14475;DHT22;7323;50.848;4.334;2023-04-07T06:29:09;10.00;1.00
14475;DHT22;7323;50.848;4.334;2023-04-07T06:31:35;10.10;1.00
14475;DHT22;7323;50.848;4.334;2023-04-07T06:34:08;10.20;1.00
14475;DHT22;7323;50.848;4.334;2023-04-07T06:36:57;10.00;1.00
14475;DHT22;7323;50.848;4.334;2023-04-07T06:39:32;10.10;1.00
14475;DHT22;7323;50.848;4.334;2023-04-07T06:41:57;10.30;1.00
14475;DHT22;7323;50.848;4.334;2023-04-07T06:44:35;10.30;1.00
14475;DHT22;7323;50.848;4.334;2023-04-07T06:47:13;10.10;1.00
14475;DHT22;7323;50.848;4.334;2023-04-07T06:49:41;9.90;1.00
14475;DHT22;7323;50.848;4.334;2023-04-07T06:52:09;10.00;1.00
14475;DHT22;7323;50.848;4.334;2023-04-07T06:54:53;9.90;99.90
14475;DHT22;7323;50.848;4.334;2023-04-07T06:57:19;9.60;1.00
14475;DHT22;7323;50.848;4.334;2023-04-07T06:59:47;9.50;1.00
14475;DHT22;7323;50.848;4.334;2023-04-07T07:02:19;9.30;1.00
14475;DHT22;7323;50.848;4.334;2023-04-07T07:04:45;9.20;4.10
14475;DHT22;7323;50.848;4.334;2023-04-07T07:07:11;9.10;8.20
14475;DHT22;7323;50.848;4.334;2023-04-07T07:09:37;9.10;13.70
14475;DHT22;7323;50.848;4.334;2023-04-07T07:12:04;9.20;15.10
14475;DHT22;7323;50.848;4.334;2023-04-07T07:14:47;9.10;14.00
14475;DHT22;7323;50.848;4.334;2023-04-07T07:17:30;9.10;8.70
14475;DHT22;7323;50.848;4.334;2023-04-07T07:19:56;9.20;9.80
14475;DHT22;7323;50.848;4.334;2023-04-07T07:22:22;9.10;9.50
14475;DHT22;7323;50.848;4.334;2023-04-07T07:25:04;9.10;9.30
14475;DHT22;7323;50.848;4.334;2023-04-07T07:27:30;9.10;12.20
14475;DHT22;7323;50.848;4.334;2023-04-07T07:30:15;9.30;13.50
14475;DHT22;7323;50.848;4.334;2023-04-07T07:32:51;9.40;1.00
14475;DHT22;7323;50.848;4.334;2023-04-07T07:35:26;9.50;1.00
14475;DHT22;7323;50.848;4.334;2023-04-07T07:38:01;9.70;1.00
14475;DHT22;7323;50.848;4.334;2023-04-07T07:40:50;9.90;1.00
14475;DHT22;7323;50.848;4.334;2023-04-07T07:43:35;10.00;1.00
14475;DHT22;7323;50.848;4.334;2023-04-07T07:46:05;10.00;1.00
14475;DHT22;7323;50.848;4.334;2023-04-07T07:48:58;9.90;1.00
14475;DHT22;7323;50.848;4.334;2023-04-07T07:51:27;9.80;1.00
14475;DHT22;7323;50.848;4.334;2023-04-07T07:54:20;9.80;1.00
14475;DHT22;7323;50.848;4.334;2023-04-07T07:56:58;9.60;1.00
14475;DHT22;7323;50.848;4.334;2023-04-07T07:59:48;9.60;1.00
14475;DHT22;7323;50.848;4.334;2023-04-07T08:02:19;9.70;1.00
14475;DHT22;7323;50.848;4.334;2023-04-07T08:05:03;9.50;1.00
14475;DHT22;7323;50.848;4.334;2023-04-07T08:07:29;9.40;1.00
14475;DHT22;7323;50.848;4.334;2023-04-07T08:10:14;9.40;1.00
14475;DHT22;7323;50.848;4.334;2023-04-07T08:12:40;9.60;1.00
14475;DHT22;7323;50.848;4.334;2023-04-07T08:18:06;9.80;1.00
14475;DHT22;7323;50.848;4.334;2023-04-07T08:20:40;9.70;99.90
14475;DHT22;7323;50.848;4.334;2023-04-07T08:23:07;9.50;99.90
14475;DHT22;7323;50.848;4.334;2023-04-07T08:25:39;9.50;99.90
14475;DHT22;7323;50.848;4.334;2023-04-07T08:28:07;9.50;99.90
14475;DHT22;7323;50.848;4.334;2023-04-07T08:30:34;9.50;99.90
14475;DHT22;7323;50.848;4.334;2023-04-07T08:33:11;9.50;99.90
14475;DHT22;7323;50.848;4.334;2023-04-07T08:35:57;9.40;99.90
14475;DHT22;7323;50.848;4.334;2023-04-07T08:38:24;9.50;99.90
14475;DHT22;7323;50.848;4.334;2023-04-07T08:41:06;9.50;99.90
14475;DHT22;7323;50.848;4.334;2023-04-07T08:43:34;9.70;99.90
14475;DHT22;7323;50.848;4.334;2023-04-07T08:46:02;9.70;99.90
14475;DHT22;7323;50.848;4.334;2023-04-07T08:48:39;9.80;99.90
14475;DHT22;7323;50.848;4.334;2023-04-07T08:51:45;9.80;99.90
14475;DHT22;7323;50.848;4.334;2023-04-07T08:54:36;9.80;99.90
14475;DHT22;7323;50.848;4.334;2023-04-07T08:57:19;10.00;99.90
14475;DHT22;7323;50.848;4.334;2023-04-07T08:59:48;10.10;99.90
14475;DHT22;7323;50.848;4.334;2023-04-07T09:02:56;10.10;99.90
14475;DHT22;7323;50.848;4.334;2023-04-07T09:05:23;10.30;99.90
14475;DHT22;7323;50.848;4.334;2023-04-07T09:08:16;10.10;99.90
14475;DHT22;7323;50.848;4.334;2023-04-07T09:11:03;10.30;99.90
14475;DHT22;7323;50.848;4.334;2023-04-07T09:13:29;10.40;99.90
14475;DHT22;7323;50.848;4.334;2023-04-07T09:16:02;10.70;99.90
14475;DHT22;7323;50.848;4.334;2023-04-07T09:18:31;10.60;99.90
14475;DHT22;7323;50.848;4.334;2023-04-07T09:21:09;10.70;99.90
14475;DHT22;7323;50.848;4.334;2023-04-07T09:23:48;10.80;99.90
14475;DHT22;7323;50.848;4.334;2023-04-07T09:32:00;11.10;99.90
14475;DHT22;7323;50.848;4.334;2023-04-07T09:34:35;11.10;99.90
14475;DHT22;7323;50.848;4.334;2023-04-07T09:37:22;11.20;99.90
14475;DHT22;7323;50.848;4.334;2023-04-07T09:39:51;11.40;99.90
14475;DHT22;7323;50.848;4.334;2023-04-07T09:42:21;11.40;99.90
14475;DHT22;7323;50.848;4.334;2023-04-07T09:45:08;11.40;99.90
14475;DHT22;7323;50.848;4.334;2023-04-07T09:47:55;11.50;99.90
14475;DHT22;7323;50.848;4.334;2023-04-07T09:50:42;11.50;99.90
14475;DHT22;7323;50.848;4.334;2023-04-07T09:53:15;11.40;99.90
14475;DHT22;7323;50.848;4.334;2023-04-07T09:55:48;11.50;99.90
14475;DHT22;7323;50.848;4.334;2023-04-07T09:58:31;11.50;99.90
14475;DHT22;7323;50.848;4.334;2023-04-07T10:01:14;11.50;99.90
14475;DHT22;7323;50.848;4.334;2023-04-07T10:03:45;11.50;99.90
14475;DHT22;7323;50.848;4.334;2023-04-07T10:06:13;11.80;99.90
14475;DHT22;7323;50.848;4.334;2023-04-07T10:09:02;12.10;99.90
14475;DHT22;7323;50.848;4.334;2023-04-07T10:11:31;12.30;99.90
14475;DHT22;7323;50.848;4.334;2023-04-07T10:14:00;12.40;99.90
14475;DHT22;7323;50.848;4.334;2023-04-07T10:16:47;12.50;99.90
14475;DHT22;7323;50.848;4.334;2023-04-07T10:19:23;12.50;99.90
14475;DHT22;7323;50.848;4.334;2023-04-07T10:21:52;12.40;99.90
14475;DHT22;7323;50.848;4.334;2023-04-07T10:27:21;12.00;99.90
14475;DHT22;7323;50.848;4.334;2023-04-07T10:30:32;11.80;99.90
14475;DHT22;7323;50.848;4.334;2023-04-07T10:33:15;11.60;99.90
14475;DHT22;7323;50.848;4.334;2023-04-07T10:36:06;11.50;99.90
14475;DHT22;7323;50.848;4.334;2023-04-07T10:38:34;11.50;99.90
14475;DHT22;7323;50.848;4.334;2023-04-07T10:41:39;11.80;99.90
14475;DHT22;7323;50.848;4.334;2023-04-07T10:47:07;11.40;99.90
14475;DHT22;7323;50.848;4.334;2023-04-07T10:50:13;11.40;99.90
14475;DHT22;7323;50.848;4.334;2023-04-07T10:52:33;11.40;99.90
14475;DHT22;7323;50.848;4.334;2023-04-07T10:58:28;11.30;99.90
14475;DHT22;7323;50.848;4.334;2023-04-07T11:04:01;11.20;99.90
14475;DHT22;7323;50.848;4.334;2023-04-07T11:06:33;11.20;99.90
14475;DHT22;7323;50.848;4.334;2023-04-07T11:09:17;11.30;99.90
14475;DHT22;7323;50.848;4.334;2023-04-07T11:11:47;11.50;99.90
14475;DHT22;7323;50.848;4.334;2023-04-07T11:14:31;11.50;99.90
14475;DHT22;7323;50.848;4.334;2023-04-07T11:17:40;11.50;99.90
14475;DHT22;7323;50.848;4.334;2023-04-07T11:20:40;11.40;99.90
14475;DHT22;7323;50.848;4.334;2023-04-07T11:23:38;11.50;99.90
14475;DHT22;7323;50.848;4.334;2023-04-07T11:26:04;11.40;99.90
14475;DHT22;7323;50.848;4.334;2023-04-07T11:28:52;11.30;99.90
14475;DHT22;7323;50.848;4.334;2023-04-07T11:31:37;11.30;99.90
14475;DHT22;7323;50.848;4.334;2023-04-07T11:34:07;11.20;99.90
14475;DHT22;7323;50.848;4.334;2023-04-07T11:36:57;11.00;99.90
14475;DHT22;7323;50.848;4.334;2023-04-07T11:39:30;11.00;99.90
14475;DHT22;7323;50.848;4.334;2023-04-07T11:42:03;11.00;99.90
14475;DHT22;7323;50.848;4.334;2023-04-07T11:44:48;11.10;99.90
14475;DHT22;7323;50.848;4.334;2023-04-07T11:47:19;11.30;99.90
14475;DHT22;7323;50.848;4.334;2023-04-07T11:49:54;11.50;99.90
14475;DHT22;7323;50.848;4.334;2023-04-07T11:52:27;11.70;99.90
14475;DHT22;7323;50.848;4.334;2023-04-07T11:54:52;11.80;99.90
14475;DHT22;7323;50.848;4.334;2023-04-07T11:57:41;12.00;99.90
14475;DHT22;7323;50.848;4.334;2023-04-07T12:00:19;12.20;99.90
14475;DHT22;7323;50.848;4.334;2023-04-07T12:02:46;12.30;99.90
14475;DHT22;7323;50.848;4.334;2023-04-07T12:05:18;12.50;99.90
14475;DHT22;7323;50.848;4.334;2023-04-07T12:07:59;12.50;99.90
14475;DHT22;7323;50.848;4.334;2023-04-07T12:10:37;12.40;99.90
14475;DHT22;7323;50.848;4.334;2023-04-07T12:13:07;12.50;99.90
14475;DHT22;7323;50.848;4.334;2023-04-07T12:15:49;12.10;99.90
14475;DHT22;7323;50.848;4.334;2023-04-07T12:18:16;11.70;99.90
14475;DHT22;7323;50.848;4.334;2023-04-07T12:21:06;11.60;99.90
14475;DHT22;7323;50.848;4.334;2023-04-07T12:23:35;11.40;99.90
14475;DHT22;7323;50.848;4.334;2023-04-07T12:26:29;11.40;99.90
14475;DHT22;7323;50.848;4.334;2023-04-07T12:28:57;11.40;99.90
14475;DHT22;7323;50.848;4.334;2023-04-07T12:31:51;11.50;99.90
14475;DHT22;7323;50.848;4.334;2023-04-07T12:34:26;11.60;99.90
14475;DHT22;7323;50.848;4.334;2023-04-07T12:37:05;11.60;99.90
14475;DHT22;7323;50.848;4.334;2023-04-07T12:39:51;11.80;99.90
14475;DHT22;7323;50.848;4.334;2023-04-07T12:42:19;11.70;99.90
14475;DHT22;7323;50.848;4.334;2023-04-07T12:45:01;11.80;99.90
14475;DHT22;7323;50.848;4.334;2023-04-07T12:47:36;11.60;99.90
14475;DHT22;7323;50.848;4.334;2023-04-07T12:50:14;11.90;99.90
14475;DHT22;7323;50.848;4.334;2023-04-07T12:52:44;11.70;99.90
14475;DHT22;7323;50.848;4.334;2023-04-07T12:55:10;11.60;99.90
14475;DHT22;7323;50.848;4.334;2023-04-07T12:57:54;11.60;99.90
14475;DHT22;7323;50.848;4.334;2023-04-07T13:01:00;11.60;99.90
14475;DHT22;7323;50.848;4.334;2023-04-07T13:03:34;11.70;99.90
14475;DHT22;7323;50.848;4.334;2023-04-07T13:05:59;11.80;99.90
14475;DHT22;7323;50.848;4.334;2023-04-07T13:08:29;11.70;99.90
14475;DHT22;7323;50.848;4.334;2023-04-07T13:10:57;11.80;99.90
14475;DHT22;7323;50.848;4.334;2023-04-07T13:13:25;11.70;99.90
14475;DHT22;7323;50.848;4.334;2023-04-07T13:16:12;11.70;99.90
14475;DHT22;7323;50.848;4.334;2023-04-07T13:19:02;11.60;99.90
14475;DHT22;7323;50.848;4.334;2023-04-07T13:21:31;11.60;99.90
14475;DHT22;7323;50.848;4.334;2023-04-07T13:24:17;11.50;99.90
14475;DHT22;7323;50.848;4.334;2023-04-07T13:26:43;11.30;99.90
14475;DHT22;7323;50.848;4.334;2023-04-07T13:29:11;11.30;99.90
14475;DHT22;7323;50.848;4.334;2023-04-07T13:31:45;11.60;99.90
14475;DHT22;7323;50.848;4.334;2023-04-07T13:34:48;11.70;99.90
14475;DHT22;7323;50.848;4.334;2023-04-07T13:37:24;11.70;99.90
14475;DHT22;7323;50.848;4.334;2023-04-07T13:40:01;11.70;99.90
14475;DHT22;7323;50.848;4.334;2023-04-07T13:42:35;11.60;99.90
14475;DHT22;7323;50.848;4.334;2023-04-07T13:45:09;11.60;99.90
14475;DHT22;7323;50.848;4.334;2023-04-07T13:47:38;11.60;99.90
14475;DHT22;7323;50.848;4.334;2023-04-07T13:50:11;11.60;99.90
14475;DHT22;7323;50.848;4.334;2023-04-07T13:52:40;11.40;99.90
14475;DHT22;7323;50.848;4.334;2023-04-07T13:55:25;11.30;99.90
14475;DHT22;7323;50.848;4.334;2023-04-07T13:57:52;11.30;99.90
14475;DHT22;7323;50.848;4.334;2023-04-07T14:00:19;11.30;99.90
14475;DHT22;7323;50.848;4.334;2023-04-07T14:03:30;11.30;99.90
14475;DHT22;7323;50.848;4.334;2023-04-07T14:05:56;11.30;1.00
14475;DHT22;7323;50.848;4.334;2023-04-07T14:08:30;11.30;1.00
14475;DHT22;7323;50.848;4.334;2023-04-07T14:10:56;11.40;1.00
14475;DHT22;7323;50.848;4.334;2023-04-07T14:13:42;11.40;1.00
14475;DHT22;7323;50.848;4.334;2023-04-07T14:16:09;11.30;1.00
14475;DHT22;7323;50.848;4.334;2023-04-07T14:18:40;11.30;1.00
14475;DHT22;7323;50.848;4.334;2023-04-07T14:21:13;11.20;1.00
14475;DHT22;7323;50.848;4.334;2023-04-07T14:23:38;11.10;1.00
14475;DHT22;7323;50.848;4.334;2023-04-07T14:26:27;10.90;1.00
14475;DHT22;7323;50.848;4.334;2023-04-07T14:29:15;10.80;1.00
14475;DHT22;7323;50.848;4.334;2023-04-07T14:31:45;10.80;1.00
14475;DHT22;7323;50.848;4.334;2023-04-07T14:34:42;10.90;1.00
14475;DHT22;7323;50.848;4.334;2023-04-07T14:37:34;11.00;1.00
14475;DHT22;7323;50.848;4.334;2023-04-07T14:40:25;11.10;1.00
14475;DHT22;7323;50.848;4.334;2023-04-07T14:43:11;11.30;1.00
14475;DHT22;7323;50.848;4.334;2023-04-07T14:46:10;11.10;1.00
14475;DHT22;7323;50.848;4.334;2023-04-07T14:48:54;10.90;1.00
14475;DHT22;7323;50.848;4.334;2023-04-07T14:51:54;10.90;1.00
14475;DHT22;7323;50.848;4.334;2023-04-07T14:54:26;11.00;1.00
14475;DHT22;7323;50.848;4.334;2023-04-07T14:56:55;11.00;1.00
14475;DHT22;7323;50.848;4.334;2023-04-07T14:59:24;11.20;1.00
14475;DHT22;7323;50.848;4.334;2023-04-07T15:02:12;11.00;1.00
14475;DHT22;7323;50.848;4.334;2023-04-07T15:04:38;11.00;1.00
14475;DHT22;7323;50.848;4.334;2023-04-07T15:07:28;11.00;1.00
14475;DHT22;7323;50.848;4.334;2023-04-07T15:09:56;11.10;1.00
14475;DHT22;7323;50.848;4.334;2023-04-07T15:12:58;11.00;1.00
14475;DHT22;7323;50.848;4.334;2023-04-07T15:16:43;11.00;1.00
14475;DHT22;7323;50.848;4.334;2023-04-07T15:19:36;11.20;1.00
14475;DHT22;7323;50.848;4.334;2023-04-07T15:22:02;11.20;1.00
14475;DHT22;7323;50.848;4.334;2023-04-07T15:24:28;11.20;1.00
14475;DHT22;7323;50.848;4.334;2023-04-07T15:27:04;11.30;1.00
14475;DHT22;7323;50.848;4.334;2023-04-07T15:29:31;11.30;1.00
14475;DHT22;7323;50.848;4.334;2023-04-07T15:32:22;11.30;99.90
14475;DHT22;7323;50.848;4.334;2023-04-07T15:34:56;11.10;99.90
14475;DHT22;7323;50.848;4.334;2023-04-07T15:37:30;11.20;99.90
14475;DHT22;7323;50.848;4.334;2023-04-07T15:40:00;11.10;99.90
14475;DHT22;7323;50.848;4.334;2023-04-07T15:42:29;11.00;99.90
14475;DHT22;7323;50.848;4.334;2023-04-07T15:44:57;11.00;99.90
14475;DHT22;7323;50.848;4.334;2023-04-07T15:47:25;11.10;99.90
14475;DHT22;7323;50.848;4.334;2023-04-07T15:49:53;11.20;99.90
14475;DHT22;7323;50.848;4.334;2023-04-07T15:52:22;11.20;99.90
14475;DHT22;7323;50.848;4.334;2023-04-07T15:54:50;11.10;1.00
14475;DHT22;7323;50.848;4.334;2023-04-07T15:57:16;11.00;1.00
14475;DHT22;7323;50.848;4.334;2023-04-07T15:59:42;11.00;99.90
14475;DHT22;7323;50.848;4.334;2023-04-07T16:02:09;11.00;99.90
14475;DHT22;7323;50.848;4.334;2023-04-07T16:04:36;10.80;99.90
14475;DHT22;7323;50.848;4.334;2023-04-07T16:07:08;10.90;99.90
14475;DHT22;7323;50.848;4.334;2023-04-07T16:09:33;11.00;1.00
14475;DHT22;7323;50.848;4.334;2023-04-07T16:12:18;11.20;1.00
14475;DHT22;7323;50.848;4.334;2023-04-07T16:14:48;11.10;99.90
14475;DHT22;7323;50.848;4.334;2023-04-07T16:17:16;10.90;99.90
14475;DHT22;7323;50.848;4.334;2023-04-07T16:19:41;10.90;99.90
14475;DHT22;7323;50.848;4.334;2023-04-07T16:22:07;11.10;99.90
14475;DHT22;7323;50.848;4.334;2023-04-07T16:24:33;11.10;99.90
14475;DHT22;7323;50.848;4.334;2023-04-07T16:26:59;11.00;99.90
14475;DHT22;7323;50.848;4.334;2023-04-07T16:29:26;10.90;99.90
14475;DHT22;7323;50.848;4.334;2023-04-07T16:31:52;11.00;99.90
14475;DHT22;7323;50.848;4.334;2023-04-07T16:34:23;11.10;99.90
14475;DHT22;7323;50.848;4.334;2023-04-07T16:36:49;10.80;99.90
14475;DHT22;7323;50.848;4.334;2023-04-07T16:39:15;10.70;99.90
14475;DHT22;7323;50.848;4.334;2023-04-07T16:41:49;10.60;1.00
14475;DHT22;7323;50.848;4.334;2023-04-07T16:44:18;10.60;1.00
14475;DHT22;7323;50.848;4.334;2023-04-07T16:46:52;10.70;1.00
14475;DHT22;7323;50.848;4.334;2023-04-07T16:49:19;10.50;1.00
14475;DHT22;7323;50.848;4.334;2023-04-07T16:51:49;10.40;1.00
14475;DHT22;7323;50.848;4.334;2023-04-07T16:54:27;10.30;1.00
14475;DHT22;7323;50.848;4.334;2023-04-07T16:57:15;10.40;1.00
14475;DHT22;7323;50.848;4.334;2023-04-07T17:00:01;10.30;1.00
14475;DHT22;7323;50.848;4.334;2023-04-07T17:02:30;10.20;1.00
14475;DHT22;7323;50.848;4.334;2023-04-07T17:04:56;10.30;1.00
14475;DHT22;7323;50.848;4.334;2023-04-07T17:07:22;10.30;1.00
14475;DHT22;7323;50.848;4.334;2023-04-07T17:09:49;10.40;1.00
14475;DHT22;7323;50.848;4.334;2023-04-07T17:12:26;10.30;1.00
14475;DHT22;7323;50.848;4.334;2023-04-07T17:14:55;10.10;1.00
14475;DHT22;7323;50.848;4.334;2023-04-07T17:17:20;10.10;1.00
14475;DHT22;7323;50.848;4.334;2023-04-07T17:19:47;10.00;1.00
14475;DHT22;7323;50.848;4.334;2023-04-07T17:22:13;10.10;1.00
14475;DHT22;7323;50.848;4.334;2023-04-07T17:24:39;10.10;1.00
14475;DHT22;7323;50.848;4.334;2023-04-07T17:27:07;10.20;1.00